Springfield, Arkansas
Current Conditions -  °F | °C
As of 6:35 AM on Monday 22 Dec 2014 (Local Time) from KCCA Reporting Station
Overcast Overcast  
Wind Chill: 46°   Ceiling: 1100
Heat Index: 48°   Visibility: 7mi
Dew Point: 45°   Wind: 5mph
Humidity: 87%   Direction: 120°ESE
Pressure: 29.75"   Gusts: NA
Location:  35.27°N, 92.56°W
Report Text: KCCA 221235Z AUTO 12004KT 7SM OVC011 09/07 A2975 RMK AO2
Loading
Personal Weather Stations






























Interactive Weather Map New forecast layout! Learn more

10-Day Weather Forecast

Advertisements
Track Severe Weather on mobile